createdAt,value
2022-09-18T00:01:16.140Z,77.90
2022-09-18T00:03:43.472Z,77.70
2022-09-18T00:06:13.075Z,77.90
2022-09-18T00:08:40.255Z,78.00
2022-09-18T00:11:09.329Z,77.50
2022-09-18T00:13:38.079Z,77.60
2022-09-18T00:16:06.393Z,77.80
2022-09-18T00:18:33.262Z,78.20
2022-09-18T00:21:08.140Z,78.60
2022-09-18T00:23:35.528Z,77.70
2022-09-18T00:26:02.452Z,77.60
2022-09-18T00:28:29.127Z,77.40
2022-09-18T00:30:55.755Z,77.40
2022-09-18T00:33:22.472Z,77.40
2022-09-18T00:35:49.037Z,77.30
2022-09-18T00:38:15.678Z,77.20
2022-09-18T00:40:42.425Z,76.80
2022-09-18T00:43:22.430Z,76.70
2022-09-18T00:45:59.330Z,76.70
2022-09-18T00:48:37.699Z,76.50
2022-09-18T00:51:04.787Z,77.00
2022-09-18T00:53:31.518Z,76.80
2022-09-18T00:55:59.247Z,76.60
2022-09-18T00:58:25.825Z,76.50
2022-09-18T01:00:55.476Z,76.40
2022-09-18T01:03:22.218Z,76.20
2022-09-18T01:06:10.473Z,76.50
2022-09-18T01:09:00.551Z,76.80
2022-09-18T01:11:51.942Z,76.40
2022-09-18T01:15:04.799Z,76.20
2022-09-18T01:17:44.524Z,76.40
2022-09-18T01:20:35.069Z,76.40
2022-09-18T01:23:37.110Z,76.30
2022-09-18T01:26:44.452Z,76.30
2022-09-18T01:29:24.587Z,76.70
2022-09-18T01:32:08.844Z,76.10
2022-09-18T01:34:54.573Z,76.50
2022-09-18T01:37:41.053Z,76.70
2022-09-18T01:40:17.521Z,76.50
2022-09-18T01:42:47.814Z,76.70
2022-09-18T01:45:22.872Z,76.60
2022-09-18T01:48:07.558Z,76.70
2022-09-18T01:50:39.541Z,76.70
2022-09-18T01:53:21.122Z,76.40
2022-09-18T01:55:59.420Z,76.50
2022-09-18T01:58:28.328Z,76.60
2022-09-18T02:00:59.188Z,76.50
2022-09-18T02:03:36.076Z,76.50
2022-09-18T02:06:06.218Z,77.10
2022-09-18T02:08:43.066Z,77.00
2022-09-18T02:11:12.501Z,77.10
2022-09-18T02:13:47.997Z,77.40
2022-09-18T02:16:23.079Z,77.70
2022-09-18T02:18:53.370Z,77.70
2022-09-18T02:21:26.392Z,77.30
2022-09-18T02:23:57.896Z,77.00
2022-09-18T02:26:25.001Z,76.90
2022-09-18T02:28:53.175Z,76.80
2022-09-18T02:31:20.531Z,76.70
2022-09-18T02:33:47.264Z,76.60
2022-09-18T02:36:32.672Z,76.30
2022-09-18T02:39:19.362Z,76.00
2022-09-18T02:42:11.070Z,76.20
2022-09-18T02:45:15.781Z,76.30
2022-09-18T02:48:20.203Z,76.10
2022-09-18T02:50:46.757Z,76.00
2022-09-18T02:53:23.578Z,76.10
2022-09-18T02:56:22.512Z,76.10
2022-09-18T02:58:57.493Z,75.80
2022-09-18T03:01:26.685Z,75.90
2022-09-18T03:03:53.721Z,76.10
2022-09-18T03:06:20.323Z,76.30
2022-09-18T03:08:46.914Z,76.20
2022-09-18T03:11:13.599Z,76.40
2022-09-18T03:13:40.205Z,76.40
2022-09-18T03:16:06.884Z,76.00
2022-09-18T03:18:33.498Z,76.30
2022-09-18T03:21:00.112Z,76.30
2022-09-18T03:23:26.701Z,76.40
2022-09-18T03:25:53.298Z,76.50
2022-09-18T03:28:19.890Z,76.60
2022-09-18T03:30:46.746Z,76.60
2022-09-18T03:33:13.689Z,76.60
2022-09-18T03:35:40.305Z,76.60
2022-09-18T03:38:06.966Z,76.50
2022-09-18T03:40:33.705Z,76.10
2022-09-18T03:43:00.380Z,76.10
2022-09-18T03:45:26.947Z,76.50
2022-09-18T03:47:53.522Z,76.20
2022-09-18T03:50:20.172Z,76.10
2022-09-18T03:52:51.319Z,76.20
2022-09-18T03:55:18.395Z,76.30
2022-09-18T03:57:46.792Z,76.10
2022-09-18T04:00:14.544Z,76.00
2022-09-18T04:02:41.946Z,75.90
2022-09-18T04:05:09.154Z,75.60
2022-09-18T04:07:36.063Z,75.80
2022-09-18T04:10:03.526Z,75.90
2022-09-18T04:12:30.181Z,75.80
2022-09-18T04:14:56.753Z,75.80
2022-09-18T04:17:23.658Z,76.10
2022-09-18T04:19:53.641Z,75.70
2022-09-18T04:22:21.599Z,75.80
2022-09-18T04:24:50.216Z,76.00
2022-09-18T04:27:17.012Z,75.90
2022-09-18T04:29:43.573Z,76.20
2022-09-18T04:32:10.158Z,75.90
2022-09-18T04:34:36.829Z,75.80
2022-09-18T04:37:05.804Z,75.90
2022-09-18T04:39:36.168Z,76.00
2022-09-18T04:42:03.316Z,75.70
2022-09-18T04:44:30.148Z,75.60
2022-09-18T04:46:57.325Z,75.80
2022-09-18T04:49:24.037Z,75.70
2022-09-18T04:51:50.627Z,75.60
2022-09-18T04:54:17.241Z,75.80
2022-09-18T04:56:43.812Z,75.70
2022-09-18T04:59:10.431Z,75.60
2022-09-18T05:01:37.031Z,75.80
2022-09-18T05:04:03.668Z,75.90
2022-09-18T05:06:30.293Z,75.90
2022-09-18T05:08:57.968Z,76.10
2022-09-18T05:11:24.698Z,75.90
2022-09-18T05:13:58.372Z,75.80
2022-09-18T05:16:25.612Z,75.70
2022-09-18T05:18:52.920Z,75.70
2022-09-18T05:21:20.279Z,75.60
2022-09-18T05:23:47.890Z,75.40
2022-09-18T05:26:14.853Z,75.30
2022-09-18T05:28:41.842Z,75.60
2022-09-18T05:31:08.740Z,75.60
2022-09-18T05:33:36.493Z,75.90
2022-09-18T05:36:04.800Z,75.90
2022-09-18T05:38:31.373Z,75.70
2022-09-18T05:41:01.553Z,75.50
2022-09-18T05:43:29.138Z,75.70
2022-09-18T05:45:56.184Z,75.90
2022-09-18T05:48:22.806Z,76.30
2022-09-18T05:50:51.821Z,76.40
2022-09-18T05:53:20.007Z,76.40
2022-09-18T05:55:46.938Z,76.80
2022-09-18T05:58:15.798Z,76.90
2022-09-18T06:00:44.603Z,76.70
2022-09-18T06:03:13.614Z,76.70
2022-09-18T06:05:41.177Z,76.60
2022-09-18T06:08:10.032Z,76.70
2022-09-18T06:10:39.169Z,76.90
2022-09-18T06:13:05.798Z,76.80
2022-09-18T06:15:33.489Z,77.20
2022-09-18T06:18:00.101Z,77.20
2022-09-18T06:20:27.306Z,77.10
2022-09-18T06:22:54.062Z,77.10
2022-09-18T06:25:22.006Z,77.20
2022-09-18T06:27:53.389Z,77.40
2022-09-18T06:30:20.083Z,77.60
2022-09-18T06:32:46.658Z,77.80
2022-09-18T06:35:13.339Z,78.00
2022-09-18T06:37:39.941Z,77.90
2022-09-18T06:40:07.180Z,78.00
2022-09-18T06:42:33.887Z,78.40
2022-09-18T06:45:00.481Z,78.30
2022-09-18T06:47:27.053Z,78.50
2022-09-18T06:49:53.630Z,78.60
2022-09-18T06:52:20.275Z,78.70
2022-09-18T06:54:46.842Z,78.80
2022-09-18T06:57:13.441Z,79.00
2022-09-18T06:59:40.036Z,78.90
2022-09-18T07:02:18.687Z,79.00
2022-09-18T07:04:46.791Z,79.00
2022-09-18T07:07:13.457Z,79.40
2022-09-18T07:09:40.052Z,79.70
2022-09-18T07:12:06.841Z,79.90
2022-09-18T07:14:33.503Z,79.90
2022-09-18T07:17:00.195Z,79.90
2022-09-18T07:19:26.850Z,80.10
2022-09-18T07:21:53.452Z,80.20
2022-09-18T07:24:20.021Z,80.40
2022-09-18T07:26:46.672Z,80.20
2022-09-18T07:29:13.369Z,80.10
2022-09-18T07:31:40.043Z,80.30
2022-09-18T07:34:08.115Z,80.30
2022-09-18T07:36:34.706Z,80.50
2022-09-18T07:39:01.528Z,80.60
2022-09-18T07:41:28.206Z,80.70
2022-09-18T07:43:54.945Z,80.70
2022-09-18T07:46:21.698Z,80.90
2022-09-18T07:48:48.447Z,81.00
2022-09-18T07:51:15.558Z,80.70
2022-09-18T07:53:42.207Z,80.60
2022-09-18T07:56:12.545Z,80.40
2022-09-18T07:58:39.299Z,80.40
2022-09-18T08:01:06.449Z,80.10
2022-09-18T08:03:35.030Z,79.80
2022-09-18T08:06:05.009Z,79.50
2022-09-18T08:08:31.630Z,79.70
2022-09-18T08:10:59.397Z,79.10
2022-09-18T08:13:26.390Z,79.20
2022-09-18T08:15:53.209Z,78.50
2022-09-18T08:18:21.611Z,78.40
2022-09-18T08:20:48.222Z,78.70
2022-09-18T08:23:14.843Z,78.20
2022-09-18T08:25:42.082Z,78.10
2022-09-18T08:28:09.763Z,77.90
2022-09-18T08:30:36.524Z,77.40
2022-09-18T08:33:06.115Z,77.20
2022-09-18T08:35:33.523Z,76.70
2022-09-18T08:38:01.107Z,76.60
2022-09-18T08:41:11.932Z,77.10
2022-09-18T08:43:44.981Z,77.10
2022-09-18T08:46:18.199Z,77.30
2022-09-18T08:48:59.341Z,77.30
2022-09-18T08:51:34.514Z,76.80
2022-09-18T08:54:38.169Z,76.60
2022-09-18T08:57:15.602Z,76.10
2022-09-18T08:59:47.303Z,75.60
2022-09-18T09:02:28.255Z,75.80
2022-09-18T09:04:58.477Z,75.60
2022-09-18T09:07:33.824Z,75.20
2022-09-18T09:10:04.367Z,74.40
2022-09-18T09:12:30.950Z,74.50
2022-09-18T09:15:29.094Z,73.90
2022-09-18T09:18:07.779Z,74.00
2022-09-18T09:20:50.725Z,74.10
2022-09-18T09:23:39.037Z,73.70
2022-09-18T09:26:10.085Z,73.60
2022-09-18T09:28:59.837Z,73.40
2022-09-18T09:31:48.877Z,74.00
2022-09-18T09:34:40.730Z,73.50
2022-09-18T09:37:15.595Z,72.30
2022-09-18T09:39:53.647Z,72.80
2022-09-18T09:42:31.016Z,72.80
2022-09-18T09:45:18.998Z,73.60
2022-09-18T09:48:10.336Z,72.80
2022-09-18T09:50:58.262Z,72.50
2022-09-18T09:53:26.774Z,72.40
2022-09-18T09:56:28.854Z,72.70
2022-09-18T09:59:08.616Z,72.70
2022-09-18T10:01:49.372Z,73.20
2022-09-18T10:04:44.739Z,73.00
2022-09-18T10:07:32.094Z,72.80
2022-09-18T10:10:23.237Z,72.00
2022-09-18T10:12:58.539Z,72.20
2022-09-18T10:15:31.722Z,72.50
2022-09-18T10:18:01.252Z,71.30
2022-09-18T10:20:31.428Z,71.30
2022-09-18T10:23:25.573Z,71.70
2022-09-18T10:25:59.570Z,72.60
2022-09-18T10:28:29.366Z,71.50
2022-09-18T10:31:05.267Z,71.40
2022-09-18T10:33:36.383Z,71.10
2022-09-18T10:36:37.507Z,70.00
2022-09-18T10:39:38.796Z,70.10
2022-09-18T10:42:07.115Z,70.60
2022-09-18T10:44:37.616Z,70.30
2022-09-18T10:47:09.907Z,69.70
2022-09-18T10:50:21.006Z,70.10
2022-09-18T10:52:48.697Z,69.20
2022-09-18T10:55:22.337Z,69.80
2022-09-18T10:57:48.857Z,70.30
2022-09-18T11:00:21.787Z,70.10
2022-09-18T11:02:54.933Z,70.30
2022-09-18T11:05:29.257Z,70.00
2022-09-18T11:07:59.534Z,70.00
2022-09-18T11:10:28.107Z,70.00
2022-09-18T11:12:57.433Z,70.00
2022-09-18T11:15:28.254Z,70.10
2022-09-18T11:17:57.077Z,70.40
2022-09-18T11:20:28.457Z,70.10
2022-09-18T11:23:13.221Z,70.40
2022-09-18T11:25:39.918Z,70.00
2022-09-18T11:28:29.678Z,69.60
2022-09-18T11:31:05.707Z,69.80
2022-09-18T11:33:56.403Z,69.50
2022-09-18T11:36:27.035Z,70.10
2022-09-18T11:38:54.941Z,69.70
2022-09-18T11:41:24.959Z,70.20
2022-09-18T11:44:21.614Z,69.90
2022-09-18T11:47:06.414Z,69.60
2022-09-18T11:49:55.369Z,69.80
2022-09-18T11:52:36.879Z,69.80
2022-09-18T11:55:07.762Z,70.30
2022-09-18T11:57:45.016Z,70.60
2022-09-18T12:00:19.096Z,71.00
2022-09-18T12:03:27.050Z,70.60
2022-09-18T12:05:58.009Z,71.30
2022-09-18T12:08:42.369Z,71.20
2022-09-18T12:11:39.100Z,70.00
2022-09-18T12:14:14.654Z,70.50
2022-09-18T12:16:47.058Z,71.10
2022-09-18T12:19:22.777Z,71.30
2022-09-18T12:21:49.394Z,70.90
2022-09-18T12:24:17.535Z,70.70
2022-09-18T12:27:04.573Z,70.90
2022-09-18T12:30:03.395Z,70.90
2022-09-18T12:32:54.207Z,69.80
2022-09-18T12:35:46.368Z,69.10
2022-09-18T12:38:24.922Z,69.70
2022-09-18T12:41:14.133Z,69.10
2022-09-18T12:43:43.828Z,69.00
2022-09-18T12:46:25.455Z,69.60
2022-09-18T12:49:16.288Z,66.80
2022-09-18T12:51:48.091Z,66.80
2022-09-18T12:54:17.724Z,67.00
2022-09-18T12:57:08.935Z,66.90
2022-09-18T12:59:41.392Z,66.30
2022-09-18T13:02:31.862Z,65.60
2022-09-18T13:05:19.994Z,65.30
2022-09-18T13:07:56.658Z,65.90
2022-09-18T13:10:37.268Z,65.60
2022-09-18T13:13:28.291Z,64.60
2022-09-18T13:16:03.290Z,65.00
2022-09-18T13:18:54.964Z,65.80
2022-09-18T13:21:28.368Z,66.10
2022-09-18T13:23:56.853Z,66.20
2022-09-18T13:26:27.309Z,65.60
2022-09-18T13:28:54.014Z,65.50
2022-09-18T13:31:30.563Z,65.70
2022-09-18T13:34:04.247Z,66.30
2022-09-18T13:36:40.966Z,66.40
2022-09-18T13:39:28.584Z,67.00
2022-09-18T13:41:57.463Z,67.70
2022-09-18T13:44:34.665Z,67.50
2022-09-18T13:47:13.072Z,67.20
2022-09-18T13:49:50.952Z,67.30
2022-09-18T13:52:35.698Z,67.70
2022-09-18T13:55:11.556Z,67.30
2022-09-18T13:57:38.898Z,67.00
2022-09-18T14:00:20.764Z,67.20
2022-09-18T14:02:51.589Z,67.90
2022-09-18T14:05:34.851Z,68.10
2022-09-18T14:08:04.305Z,67.70
2022-09-18T14:10:59.473Z,67.50
2022-09-18T14:13:39.715Z,67.40
2022-09-18T14:16:23.783Z,67.60
2022-09-18T14:19:07.346Z,67.10
2022-09-18T14:21:40.485Z,67.10
2022-09-18T14:24:23.211Z,67.40
2022-09-18T14:26:59.061Z,67.10
2022-09-18T14:29:31.885Z,67.70
2022-09-18T14:32:00.774Z,67.20
2022-09-18T14:34:42.026Z,66.70
2022-09-18T14:37:29.107Z,67.60
2022-09-18T14:39:57.691Z,68.00
2022-09-18T14:42:33.145Z,67.60
2022-09-18T14:45:15.117Z,67.40
2022-09-18T14:47:44.558Z,67.30
2022-09-18T14:50:23.575Z,67.50
2022-09-18T14:52:50.344Z,67.80
2022-09-18T14:55:23.664Z,66.70
2022-09-18T14:58:01.018Z,66.90
2022-09-18T15:00:30.731Z,67.50
2022-09-18T15:03:01.013Z,67.40
2022-09-18T15:05:28.620Z,69.00
2022-09-18T15:08:01.965Z,67.50
2022-09-18T15:10:29.258Z,67.30
2022-09-18T15:12:57.972Z,67.80
2022-09-18T15:15:38.167Z,68.40
2022-09-18T15:18:16.530Z,68.70
2022-09-18T15:20:50.361Z,69.00
2022-09-18T15:23:29.068Z,69.30
2022-09-18T15:26:02.669Z,69.50
2022-09-18T15:28:34.481Z,69.90
2022-09-18T15:31:04.765Z,69.90
2022-09-18T15:33:34.296Z,69.30
2022-09-18T15:36:02.828Z,69.40
2022-09-18T15:38:46.004Z,70.00
2022-09-18T15:41:33.830Z,69.80
2022-09-18T15:44:00.626Z,69.10
2022-09-18T15:46:35.941Z,68.90
2022-09-18T15:49:29.755Z,69.30
2022-09-18T15:51:57.145Z,69.50
2022-09-18T15:54:26.729Z,69.80
2022-09-18T15:56:57.736Z,69.50
2022-09-18T15:59:37.784Z,69.50
2022-09-18T16:02:36.757Z,68.60
2022-09-18T16:05:14.915Z,69.30
2022-09-18T16:07:52.324Z,69.10
2022-09-18T16:10:34.387Z,68.70
2022-09-18T16:13:11.094Z,69.40
2022-09-18T16:15:37.909Z,70.00
2022-09-18T16:18:23.743Z,70.80
2022-09-18T16:20:57.619Z,71.20
2022-09-18T16:23:34.773Z,71.30
2022-09-18T16:26:21.425Z,71.40
2022-09-18T16:28:52.369Z,71.50
2022-09-18T16:31:22.104Z,71.70
2022-09-18T16:33:50.800Z,71.90
2022-09-18T16:36:31.523Z,71.60
2022-09-18T16:39:01.391Z,71.80
2022-09-18T16:41:29.767Z,72.00
2022-09-18T16:43:56.561Z,72.30
2022-09-18T16:46:27.788Z,72.20
2022-09-18T16:48:55.147Z,72.10
2022-09-18T16:51:22.016Z,71.90
2022-09-18T16:53:49.257Z,72.20
2022-09-18T16:56:21.492Z,72.70
2022-09-18T16:58:48.138Z,73.30
2022-09-18T17:01:15.514Z,73.30
2022-09-18T17:03:42.179Z,73.30
2022-09-18T17:06:08.838Z,73.50
2022-09-18T17:08:36.976Z,74.20
2022-09-18T17:11:05.012Z,74.40
2022-09-18T17:13:31.743Z,75.20
2022-09-18T17:16:01.673Z,75.40
2022-09-18T17:18:28.639Z,75.80
2022-09-18T17:20:55.233Z,76.20
2022-09-18T17:23:21.875Z,76.20
2022-09-18T17:25:48.442Z,77.00
2022-09-18T17:28:18.193Z,77.10
2022-09-18T17:30:45.155Z,77.10
2022-09-18T17:33:11.808Z,77.30
2022-09-18T17:35:38.455Z,78.00
2022-09-18T17:38:05.051Z,78.30
2022-09-18T17:40:31.920Z,78.90
2022-09-18T17:42:59.147Z,79.30
2022-09-18T17:45:25.795Z,79.60
2022-09-18T17:47:53.268Z,79.80
2022-09-18T17:50:20.773Z,80.60
2022-09-18T17:52:47.474Z,80.30
2022-09-18T17:55:14.207Z,80.10
2022-09-18T17:57:40.851Z,80.30
2022-09-18T18:00:09.596Z,80.10
2022-09-18T18:02:36.598Z,80.50
2022-09-18T18:05:03.466Z,80.60
2022-09-18T18:07:30.183Z,80.80
2022-09-18T18:09:56.792Z,81.10
2022-09-18T18:12:23.366Z,81.20
2022-09-18T18:14:49.964Z,81.50
2022-09-18T18:17:17.812Z,81.80
2022-09-18T18:19:44.425Z,82.10
2022-09-18T18:22:11.015Z,82.20
2022-09-18T18:24:37.829Z,82.90
2022-09-18T18:27:05.124Z,83.00
2022-09-18T18:29:31.797Z,83.10
2022-09-18T18:32:00.228Z,83.20
2022-09-18T18:34:26.960Z,83.60
2022-09-18T18:36:53.605Z,83.60
2022-09-18T18:39:20.277Z,84.10
2022-09-18T18:41:47.386Z,84.80
2022-09-18T18:44:14.642Z,84.60
2022-09-18T18:46:41.265Z,84.70
2022-09-18T18:49:10.560Z,84.80
2022-09-18T18:51:42.885Z,85.30
2022-09-18T18:54:10.002Z,85.50
2022-09-18T18:56:38.512Z,85.80
2022-09-18T18:59:07.276Z,85.90
2022-09-18T19:01:34.363Z,86.00
2022-09-18T19:04:06.557Z,86.30
2022-09-18T19:06:36.220Z,86.50
2022-09-18T19:09:24.362Z,86.50
2022-09-18T19:11:52.764Z,86.30
2022-09-18T19:14:25.872Z,86.90
2022-09-18T19:16:53.741Z,86.60
2022-09-18T19:19:23.318Z,86.30
2022-09-18T19:21:50.785Z,85.90
2022-09-18T19:24:20.429Z,86.50
2022-09-18T19:26:48.074Z,85.70
2022-09-18T19:29:17.749Z,85.00
2022-09-18T19:31:45.541Z,84.50
2022-09-18T19:34:14.637Z,83.80
2022-09-18T19:36:47.077Z,83.30
2022-09-18T19:39:14.281Z,83.60
2022-09-18T19:41:55.741Z,83.60
2022-09-18T19:44:37.060Z,83.30
2022-09-18T19:47:07.382Z,84.30
2022-09-18T19:49:37.592Z,83.30
2022-09-18T19:52:17.943Z,83.90
2022-09-18T19:54:46.374Z,84.00
2022-09-18T19:57:13.351Z,84.80
2022-09-18T19:59:40.028Z,85.00
2022-09-18T20:02:07.111Z,85.60
2022-09-18T20:04:36.346Z,86.60
2022-09-18T20:07:07.716Z,86.50
2022-09-18T20:09:34.353Z,86.60
2022-09-18T20:12:01.768Z,86.60
2022-09-18T20:14:28.668Z,86.50
2022-09-18T20:16:55.837Z,86.80
2022-09-18T20:19:23.936Z,86.90
2022-09-18T20:21:50.674Z,86.30
2022-09-18T20:24:17.441Z,86.50
2022-09-18T20:26:44.485Z,85.80
2022-09-18T20:29:16.105Z,86.50
2022-09-18T20:31:43.370Z,86.40
2022-09-18T20:34:10.969Z,86.50
2022-09-18T20:36:38.061Z,86.60
2022-09-18T20:39:05.035Z,87.00
2022-09-18T20:41:31.728Z,86.90
2022-09-18T20:44:04.725Z,86.80
2022-09-18T20:56:31.168Z,86.30
2022-09-18T20:58:58.284Z,85.10
2022-09-18T21:01:27.708Z,85.90
2022-09-18T21:04:00.190Z,85.70
2022-09-18T21:06:31.608Z,86.20
2022-09-18T21:08:59.248Z,86.00
2022-09-18T21:11:28.629Z,85.70
2022-09-18T21:14:00.871Z,86.20
2022-09-18T21:16:30.698Z,86.40
2022-09-18T21:19:00.131Z,86.30
2022-09-18T21:21:30.400Z,86.00
2022-09-18T21:24:04.162Z,85.90
2022-09-18T21:26:42.596Z,85.80
2022-09-18T21:29:23.588Z,85.20
2022-09-18T21:31:56.118Z,84.10
2022-09-18T21:34:29.959Z,84.20
2022-09-18T21:37:01.844Z,84.40
2022-09-18T21:39:29.365Z,84.30
2022-09-18T21:41:57.417Z,85.00
2022-09-18T21:44:29.000Z,84.40
2022-09-18T21:47:07.821Z,84.70
2022-09-18T21:49:34.851Z,84.40
2022-09-18T21:52:05.020Z,84.60
2022-09-18T21:54:32.571Z,84.50
2022-09-18T21:56:59.955Z,84.50
2022-09-18T21:59:30.136Z,84.10
2022-09-18T22:01:57.675Z,83.90
2022-09-18T22:04:27.903Z,84.00
2022-09-18T22:06:56.963Z,85.00
2022-09-18T22:09:29.175Z,85.70
2022-09-18T22:11:57.053Z,85.80
2022-09-18T22:14:28.509Z,84.90
2022-09-18T22:16:56.259Z,85.50
2022-09-18T22:19:22.965Z,85.10
2022-09-18T22:21:51.113Z,85.70
2022-09-18T22:24:20.068Z,85.80
2022-09-18T22:26:50.126Z,84.90
2022-09-18T22:29:20.335Z,85.60
2022-09-18T22:31:47.611Z,86.70
2022-09-18T22:34:17.225Z,87.40
2022-09-18T22:36:44.977Z,87.30
2022-09-18T22:39:12.590Z,87.30
2022-09-18T22:41:39.399Z,87.80
2022-09-18T22:44:07.170Z,87.70
2022-09-18T22:46:35.831Z,88.00
2022-09-18T22:49:02.491Z,87.80
2022-09-18T22:51:29.807Z,88.20
2022-09-18T22:54:02.636Z,88.00
2022-09-18T22:56:29.748Z,88.30
2022-09-18T22:58:58.178Z,88.20
2022-09-18T23:01:31.832Z,88.00
2022-09-18T23:03:59.814Z,88.00
2022-09-18T23:06:26.924Z,87.40
2022-09-18T23:08:55.733Z,86.90
2022-09-18T23:11:25.467Z,87.40
2022-09-18T23:14:00.836Z,88.40
2022-09-18T23:16:29.377Z,88.50
2022-09-18T23:18:58.968Z,88.60
2022-09-18T23:21:27.220Z,88.40
2022-09-18T23:23:56.722Z,88.10
2022-09-18T23:26:26.700Z,87.50
2022-09-18T23:28:55.072Z,87.90
2022-09-18T23:31:26.187Z,87.90
2022-09-18T23:33:54.834Z,88.20
2022-09-18T23:36:26.999Z,88.00
2022-09-18T23:38:58.894Z,88.00
2022-09-18T23:41:26.606Z,87.50
2022-09-18T23:43:54.216Z,87.50
2022-09-18T23:46:21.894Z,87.80
2022-09-18T23:48:54.705Z,87.40
2022-09-18T23:51:27.496Z,86.70
2022-09-18T23:53:59.841Z,86.50
2022-09-18T23:56:31.536Z,86.20
2022-09-18T23:59:01.081Z,86.10
